This is the latest recevied weather packets stored in our database for station/object OM7IT-WX. If no packets are shown the sender has not sent any weather packets the latest 10 day(s).
| Time | Temp. | Humidity | Pressure | Rain* | Wind** | Luminosity | Snow |
|---|---|---|---|---|---|---|---|
| 1777689605 | 2.78° C | 62% | 981 hPa | - | - | - | - |
| 1777689305 | 2.78° C | 62% | 981 hPa | - | - | - | - |
| 1777689005 | 2.78° C | 63% | 981 hPa | - | - | - | - |
| 1777688704 | 2.78° C | 63% | 981 hPa | - | - | - | - |
| 1777688103 | 2.78° C | 63% | 981 hPa | - | - | - | - |
| 1777674305 | 6.11° C | 55% | 981 hPa | - | - | - | - |
| 1777673704 | 6.11° C | 55% | 981 hPa | - | - | - | - |
| 1777671906 | 6.67° C | 53% | 981 hPa | - | - | - | - |
| 1777670103 | 7.22° C | 51% | 981 hPa | - | - | - | - |
| 1777669507 | 7.78° C | 50% | 981 hPa | - | - | - | - |
| 1777668906 | 7.78° C | 50% | 981 hPa | - | - | - | - |
| 1777667103 | 9.44° C | 47% | 981 hPa | - | - | - | - |
| 1777666809 | 9.44° C | 47% | 981 hPa | - | - | - | - |
| 1777664704 | 11.67° C | 43% | 981 hPa | - | - | - | - |
| 1777662906 | 12.78° C | 40% | 980 hPa | - | - | - | - |
| 1777656004 | 16.67° C | 29% | 980 hPa | - | - | - | - |
| 1777655108 | 17.22° C | 29% | 980 hPa | - | - | - | - |
| 1777651807 | 17.22° C | 28% | 980 hPa | - | - | - | - |
| 1777650004 | 16.11° C | 29% | 980 hPa | - | - | - | - |
| 1777649703 | 16.11° C | 29% | 980 hPa | - | - | - | - |
| 1777649403 | 16.11° C | 29% | 980 hPa | - | - | - | - |
| 1777649107 | 16.11° C | 29% | 980 hPa | - | - | - | - |
| 1777648809 | 16.11° C | 29% | 980 hPa | - | - | - | - |
| 1777648506 | 16.11° C | 29% | 980 hPa | - | - | - | - |
| 1777648206 | 16.11° C | 28% | 980 hPa | - | - | - | - |
* Rain since midnight (hover to see other rain measurements)
** Current wind speed in m/s (hover to see current wind gust speed)